Time;durP1;ratioP1;P1;durP2;ratioP2;P2;SDS_P1;SDS_P2;PMS_P1;PMS_P2;Temp;Humidity;BMP_temperature;BMP_pressure;BME280_temperature;BME280_humidity;BME280_pressure;Samples;Min_cycle;Max_cycle;Signal;HPM_P1;HPM_P2
2022/06/03 00:01:44;;;;;;;6.63;4.75;;;;;;;;;;4866419;29;20909;-62
2022/06/03 00:04:29;;;;;;;8.43;5.03;;;;;;;;;;4866963;29;20040;-62
2022/06/03 00:07:22;;;;;;;8.50;4.80;;;;;;;;;;4830005;29;20159;-62
2022/06/03 00:09:56;;;;;;;8.48;4.90;;;;;;;;;;4866423;29;20120;-62
2022/06/03 00:12:30;;;;;;;8.38;4.78;;;;;;;;;;4866377;29;20041;-62
2022/06/03 00:14:55;;;;;;;7.65;5.13;;;;;;;;;;4865488;29;20040;-62
2022/06/03 00:17:39;;;;;;;8.60;5.20;;;;;;;;;;4865687;29;20687;-62
2022/06/03 00:20:05;;;;;;;8.75;4.60;;;;;;;;;;4865758;29;20856;-63
2022/06/03 00:22:36;;;;;;;7.63;5.00;;;;;;;;;;4866549;29;20044;-62
2022/06/03 00:25:20;;;;;;;8.98;4.97;;;;;;;;;;4864848;29;20119;-62
2022/06/03 00:27:45;;;;;;;9.20;5.25;;;;;;;;;;4864354;29;20036;-62
2022/06/03 00:30:10;;;;;;;10.10;5.40;;;;;;;;;;4867225;29;20028;-62
2022/06/03 00:32:42;;;;;;;5.95;4.95;;;;;;;;;;4848297;29;20040;-63
2022/06/03 00:35:42;;;;;;;8.38;5.03;;;;;;;;;;4865910;29;20147;-62
2022/06/03 00:38:18;;;;;;;7.40;5.30;;;;;;;;;;4823684;29;20055;-62
2022/06/03 00:41:02;;;;;;;8.35;5.32;;;;;;;;;;4865560;29;20132;-62
2022/06/03 00:43:37;;;;;;;10.27;6.03;;;;;;;;;;4865909;29;20047;-63
2022/06/03 00:46:18;;;;;;;10.15;5.72;;;;;;;;;;4842046;29;20106;-62
2022/06/03 00:49:18;;;;;;;8.60;5.78;;;;;;;;;;4838856;29;20040;-63
2022/06/03 00:52:02;;;;;;;10.30;6.18;;;;;;;;;;4801547;29;20137;-63
2022/06/03 00:54:36;;;;;;;11.15;5.97;;;;;;;;;;4839244;29;20127;-62
2022/06/03 00:57:07;;;;;;;9.48;6.32;;;;;;;;;;4864566;29;20044;-63
2022/06/03 00:59:42;;;;;;;11.82;6.30;;;;;;;;;;4861523;29;20067;-62
2022/06/03 01:02:07;;;;;;;7.70;5.90;;;;;;;;;;4844734;29;20046;-63
2022/06/03 01:04:38;;;;;;;9.40;6.13;;;;;;;;;;4863148;29;22294;-63
2022/06/03 01:07:21;;;;;;;11.18;6.80;;;;;;;;;;4863850;29;20084;-62
2022/06/03 01:09:55;;;;;;;11.25;6.22;;;;;;;;;;4859382;29;20040;-62
2022/06/03 01:12:22;;;;;;;10.20;6.00;;;;;;;;;;4863120;29;20036;-62
2022/06/03 01:14:55;;;;;;;10.48;5.95;;;;;;;;;;4862901;29;20036;-63
2022/06/03 01:17:26;;;;;;;11.48;6.28;;;;;;;;;;4864328;29;20044;-62
2022/06/03 01:20:10;;;;;;;9.88;6.10;;;;;;;;;;4863451;29;20151;-63
2022/06/03 01:22:46;;;;;;;9.52;5.90;;;;;;;;;;4857557;29;20040;-62
2022/06/03 01:25:16;;;;;;;10.27;5.88;;;;;;;;;;4864779;29;20047;-63
2022/06/03 01:27:57;;;;;;;9.48;5.85;;;;;;;;;;4864544;29;20037;-63
2022/06/03 01:30:31;;;;;;;10.45;6.00;;;;;;;;;;4863920;29;20770;-63
2022/06/03 01:33:00;;;;;;;8.60;5.60;;;;;;;;;;4863126;29;22707;-62
2022/06/03 01:35:37;;;;;;;7.93;5.50;;;;;;;;;;4865774;29;20140;-62
2022/06/03 01:38:20;;;;;;;11.43;5.97;;;;;;;;;;4863916;29;20674;-63
2022/06/03 01:41:03;;;;;;;9.65;5.50;;;;;;;;;;4845675;29;20880;-62
2022/06/03 01:43:39;;;;;;;9.45;5.70;;;;;;;;;;4859249;29;20044;-62
2022/06/03 01:46:11;;;;;;;8.60;5.32;;;;;;;;;;4865385;29;20850;-63
2022/06/03 01:48:55;;;;;;;8.35;6.07;;;;;;;;;;4865309;29;20048;-62
2022/06/03 01:51:20;;;;;;;6.22;4.97;;;;;;;;;;4864297;29;20107;-62
2022/06/03 01:53:45;;;;;;;7.47;5.10;;;;;;;;;;4866941;29;20163;-62
2022/06/03 01:56:11;;;;;;;8.05;5.00;;;;;;;;;;4861595;29;20095;-62
2022/06/03 01:58:42;;;;;;;9.02;5.07;;;;;;;;;;4864715;29;20040;-62
2022/06/03 02:01:30;;;;;;;8.57;4.90;;;;;;;;;;4862680;29;20134;-62
2022/06/03 02:04:14;;;;;;;7.55;4.38;;;;;;;;;;4865916;29;20906;-62
2022/06/03 02:06:58;;;;;;;9.10;4.63;;;;;;;;;;4863427;29;20206;-62
2022/06/03 02:09:38;;;;;;;6.80;4.50;;;;;;;;;;4865512;29;20076;-61
2022/06/03 02:12:09;;;;;;;8.27;4.20;;;;;;;;;;4864400;29;20071;-61
2022/06/03 02:14:53;;;;;;;7.33;4.40;;;;;;;;;;4865293;29;20581;-61
2022/06/03 02:17:32;;;;;;;8.13;4.00;;;;;;;;;;4864759;29;20044;-61
2022/06/03 02:20:14;;;;;;;8.77;4.40;;;;;;;;;;4864945;29;20911;-62
2022/06/03 02:22:56;;;;;;;7.45;4.20;;;;;;;;;;4864698;29;20773;-62
2022/06/03 02:25:31;;;;;;;5.88;4.40;;;;;;;;;;4864795;29;20040;-62
2022/06/03 02:28:19;;;;;;;10.07;4.50;;;;;;;;;;4844373;29;20104;-62
2022/06/03 02:30:48;;;;;;;8.52;4.93;;;;;;;;;;4843720;29;20032;-62
2022/06/03 02:33:16;;;;;;;7.25;4.72;;;;;;;;;;4864536;29;20048;-62
2022/06/03 02:35:47;;;;;;;10.90;4.75;;;;;;;;;;4865368;29;20865;-63
2022/06/03 02:38:18;;;;;;;6.95;4.70;;;;;;;;;;4864212;29;20489;-63
2022/06/03 02:40:49;;;;;;;9.18;4.90;;;;;;;;;;4844599;29;20619;-62
2022/06/03 02:43:35;;;;;;;6.80;4.80;;;;;;;;;;4843934;29;20139;-62
2022/06/03 02:46:18;;;;;;;6.72;4.53;;;;;;;;;;4863954;29;20052;-62
2022/06/03 02:49:02;;;;;;;8.52;5.10;;;;;;;;;;4866499;29;20036;-62
2022/06/03 02:51:37;;;;;;;9.02;5.63;;;;;;;;;;4853772;29;20036;-62
2022/06/03 02:54:05;;;;;;;8.88;5.30;;;;;;;;;;4866958;29;20103;-62
2022/06/03 02:56:30;;;;;;;8.65;5.15;;;;;;;;;;4867685;29;20044;-62
2022/06/03 02:59:24;;;;;;;9.27;5.50;;;;;;;;;;4868011;29;20028;-63
2022/06/03 03:01:49;;;;;;;8.88;5.60;;;;;;;;;;4865583;29;20080;-62
2022/06/03 03:04:30;;;;;;;9.15;5.78;;;;;;;;;;4866788;29;20048;-62
2022/06/03 03:07:07;;;;;;;10.50;6.28;;;;;;;;;;4867521;29;20059;-62
2022/06/03 03:09:53;;;;;;;9.50;6.13;;;;;;;;;;4867658;29;20158;-61
2022/06/03 03:12:26;;;;;;;11.02;6.93;;;;;;;;;;4866407;29;20096;-61
2022/06/03 03:14:51;;;;;;;10.05;6.07;;;;;;;;;;4865240;29;20040;-62
2022/06/03 03:17:35;;;;;;;7.97;5.68;;;;;;;;;;4864577;29;20107;-62
2022/06/03 03:20:07;;;;;;;12.32;6.40;;;;;;;;;;4868061;29;20143;-62
2022/06/03 03:22:50;;;;;;;8.93;5.60;;;;;;;;;;4867341;29;20051;-62
2022/06/03 03:25:22;;;;;;;8.27;6.38;;;;;;;;;;4846559;29;20130;-62
2022/06/03 03:27:47;;;;;;;10.68;6.60;;;;;;;;;;4865952;29;20037;-61
2022/06/03 03:30:12;;;;;;;10.18;6.28;;;;;;;;;;4849778;29;20063;-62
2022/06/03 03:32:56;;;;;;;13.48;6.72;;;;;;;;;;4865223;29;20041;-62
2022/06/03 03:35:28;;;;;;;10.18;5.90;;;;;;;;;;4863525;29;20115;-62
2022/06/03 03:38:12;;;;;;;9.98;6.15;;;;;;;;;;4866695;29;20174;-62
2022/06/03 03:40:50;;;;;;;8.80;6.18;;;;;;;;;;4846689;29;20148;-62
2022/06/03 03:43:21;;;;;;;12.35;7.10;;;;;;;;;;4845921;29;20043;-62
2022/06/03 03:46:06;;;;;;;10.52;6.30;;;;;;;;;;4830283;29;20481;-62
2022/06/03 03:48:34;;;;;;;12.23;6.50;;;;;;;;;;4831574;29;20703;-61
2022/06/03 03:51:18;;;;;;;12.95;7.25;;;;;;;;;;4847057;29;20049;-62
2022/06/03 03:53:53;;;;;;;9.95;6.35;;;;;;;;;;4846795;29;20124;-62
2022/06/03 03:56:37;;;;;;;8.80;6.47;;;;;;;;;;4848000;29;20064;-61
2022/06/03 03:59:11;;;;;;;9.98;6.38;;;;;;;;;;4848510;29;20037;-62
2022/06/03 04:01:43;;;;;;;9.10;6.22;;;;;;;;;;4841501;29;20071;-62
2022/06/03 04:04:20;;;;;;;10.07;5.82;;;;;;;;;;4846923;29;20040;-62
2022/06/03 04:07:07;;;;;;;11.77;6.47;;;;;;;;;;4847148;29;20107;-62
2022/06/03 04:10:13;;;;;;;9.77;5.80;;;;;;;;;;4846360;29;20698;-62
2022/06/03 04:12:51;;;;;;;14.23;6.25;;;;;;;;;;4786602;29;20126;-61
2022/06/03 04:15:35;;;;;;;10.90;5.95;;;;;;;;;;4784767;29;20035;-61
2022/06/03 04:18:03;;;;;;;11.52;5.95;;;;;;;;;;4821849;29;20037;-62
2022/06/03 04:20:41;;;;;;;9.00;5.47;;;;;;;;;;4845051;29;20048;-62
2022/06/03 04:23:19;;;;;;;8.27;5.88;;;;;;;;;;4846336;29;20116;-62
2022/06/03 04:25:56;;;;;;;9.32;5.95;;;;;;;;;;4847440;29;20044;-61
2022/06/03 04:28:33;;;;;;;11.52;5.93;;;;;;;;;;4845302;29;20071;-62
2022/06/03 04:30:58;;;;;;;10.57;6.07;;;;;;;;;;4848218;29;20573;-62
2022/06/03 04:33:29;;;;;;;8.10;5.40;;;;;;;;;;4844272;29;20048;-62
2022/06/03 04:36:12;;;;;;;9.60;5.55;;;;;;;;;;4842924;29;20048;-62
2022/06/03 04:38:58;;;;;;;12.05;5.75;;;;;;;;;;4851057;29;20135;-62
2022/06/03 04:41:43;;;;;;;9.43;5.90;;;;;;;;;;4863481;29;20047;-62
2022/06/03 04:44:27;;;;;;;10.07;5.82;;;;;;;;;;4865814;29;20036;-62
2022/06/03 04:46:56;;;;;;;9.93;5.20;;;;;;;;;;4849276;29;20048;-62
2022/06/03 04:49:38;;;;;;;9.27;5.35;;;;;;;;;;4866669;29;20779;-61
2022/06/03 04:52:23;;;;;;;8.00;5.32;;;;;;;;;;4866499;29;20043;-62
2022/06/03 04:54:48;;;;;;;8.98;5.07;;;;;;;;;;4867542;29;20118;-62
2022/06/03 04:57:35;;;;;;;8.75;4.78;;;;;;;;;;4864883;29;20041;-62
2022/06/03 05:00:21;;;;;;;10.05;4.93;;;;;;;;;;4864605;29;20036;-62
2022/06/03 05:03:18;;;;;;;8.43;4.57;;;;;;;;;;4864476;29;20066;-62
2022/06/03 05:06:02;;;;;;;5.53;4.00;;;;;;;;;;4864330;29;20051;-61
2022/06/03 05:08:30;;;;;;;7.50;3.90;;;;;;;;;;4864715;29;20051;-62
2022/06/03 05:11:04;;;;;;;8.73;4.05;;;;;;;;;;4864239;29;20151;-63
2022/06/03 05:13:48;;;;;;;7.55;3.95;;;;;;;;;;4864357;29;20383;-61
2022/06/03 05:16:13;;;;;;;7.13;4.10;;;;;;;;;;4864765;29;20412;-62
2022/06/03 05:19:01;;;;;;;6.70;4.07;;;;;;;;;;4862622;29;20047;-62
2022/06/03 05:21:46;;;;;;;8.77;4.18;;;;;;;;;;4865657;29;20036;-62
2022/06/03 05:24:17;;;;;;;5.93;3.80;;;;;;;;;;4866237;29;20063;-63
2022/06/03 05:27:01;;;;;;;8.35;3.92;;;;;;;;;;4865817;29;20040;-63
2022/06/03 05:30:05;;;;;;;7.22;3.80;;;;;;;;;;4865870;29;20047;-63
2022/06/03 05:32:53;;;;;;;6.65;4.00;;;;;;;;;;4820709;29;20053;-63
2022/06/03 05:35:39;;;;;;;5.60;3.97;;;;;;;;;;4809614;29;20048;-61
2022/06/03 05:38:11;;;;;;;5.78;3.55;;;;;;;;;;4851549;29;20032;-62
2022/06/03 05:40:38;;;;;;;6.18;3.92;;;;;;;;;;4847638;29;20072;-61
2022/06/03 05:43:22;;;;;;;6.70;3.70;;;;;;;;;;4864290;29;20084;-63
2022/06/03 05:45:47;;;;;;;5.80;3.72;;;;;;;;;;4865891;29;20051;-62
2022/06/03 05:48:16;;;;;;;5.40;3.50;;;;;;;;;;4864477;29;20092;-62
2022/06/03 05:50:56;;;;;;;6.40;3.47;;;;;;;;;;4862949;29;20082;-62
2022/06/03 05:53:34;;;;;;;6.20;3.53;;;;;;;;;;4864077;29;20115;-63
2022/06/03 05:56:16;;;;;;;7.25;3.45;;;;;;;;;;4862427;29;20785;-62
2022/06/03 05:58:44;;;;;;;6.35;3.40;;;;;;;;;;4859691;29;20132;-63
2022/06/03 06:01:10;;;;;;;5.40;3.20;;;;;;;;;;4859333;29;20044;-62
2022/06/03 06:03:38;;;;;;;5.70;3.10;;;;;;;;;;4864125;29;20671;-62
2022/06/03 06:06:03;;;;;;;8.35;3.10;;;;;;;;;;4862192;29;20052;-62
2022/06/03 06:08:35;;;;;;;4.93;3.15;;;;;;;;;;4843634;29;20083;-62
2022/06/03 06:11:03;;;;;;;4.90;3.15;;;;;;;;;;4864749;29;20040;-62
2022/06/03 06:13:47;;;;;;;6.40;3.60;;;;;;;;;;4864800;29;20051;-62
2022/06/03 06:16:12;;;;;;;7.10;3.55;;;;;;;;;;4863775;29;20054;-62
2022/06/03 06:18:48;;;;;;;6.45;3.45;;;;;;;;;;4866336;29;20049;-62
2022/06/03 06:21:30;;;;;;;6.78;3.60;;;;;;;;;;4867982;29;20055;-62
2022/06/03 06:23:56;;;;;;;4.78;3.25;;;;;;;;;;4867497;29;20040;-62
2022/06/03 06:26:36;;;;;;;6.93;3.30;;;;;;;;;;4848708;29;20135;-63
2022/06/03 06:29:23;;;;;;;5.25;3.25;;;;;;;;;;4865870;29;20040;-64
2022/06/03 06:31:48;;;;;;;6.32;3.70;;;;;;;;;;4845345;29;20090;-62
2022/06/03 06:34:29;;;;;;;4.20;3.20;;;;;;;;;;4865037;29;20044;-63
2022/06/03 06:37:13;;;;;;;3.63;2.85;;;;;;;;;;4864464;29;20324;-63
2022/06/03 06:39:41;;;;;;;6.90;3.33;;;;;;;;;;4856886;29;20702;-63
2022/06/03 06:42:17;;;;;;;4.82;3.13;;;;;;;;;;4864684;29;20637;-63
2022/06/03 06:44:46;;;;;;;6.20;3.30;;;;;;;;;;4833578;29;20044;-61
2022/06/03 06:47:19;;;;;;;5.57;3.15;;;;;;;;;;4864519;29;20126;-63
2022/06/03 06:50:03;;;;;;;5.68;3.10;;;;;;;;;;4863743;29;20040;-64
2022/06/03 06:52:51;;;;;;;6.53;3.10;;;;;;;;;;4864037;29;20044;-62
2022/06/03 06:55:24;;;;;;;4.68;3.40;;;;;;;;;;4848528;29;20111;-63
2022/06/03 06:57:51;;;;;;;5.47;3.20;;;;;;;;;;4843217;29;20370;-63
2022/06/03 07:00:36;;;;;;;4.90;3.38;;;;;;;;;;4844839;29;20040;-62
2022/06/03 07:03:04;;;;;;;6.45;2.88;;;;;;;;;;4865819;29;20134;-62
2022/06/03 07:05:40;;;;;;;5.60;2.78;;;;;;;;;;4864907;29;20507;-62
2022/06/03 07:08:18;;;;;;;5.55;2.83;;;;;;;;;;4863655;29;20147;-62
2022/06/03 07:10:48;;;;;;;6.55;3.05;;;;;;;;;;4865575;29;20036;-63
2022/06/03 07:13:13;;;;;;;4.85;2.90;;;;;;;;;;4863542;29;20111;-62
2022/06/03 07:15:42;;;;;;;5.20;3.08;;;;;;;;;;4862842;29;20357;-63
2022/06/03 07:21:10;;;;;;;5.00;2.72;;;;;;;;;;4867718;29;20552;-63
2022/06/03 07:23:46;;;;;;;3.83;2.72;;;;;;;;;;4862220;29;20037;-63
2022/06/03 07:26:31;;;;;;;2.90;2.28;;;;;;;;;;4863510;29;20044;-65
2022/06/03 07:29:00;;;;;;;6.05;3.42;;;;;;;;;;4847873;29;20103;-63
2022/06/03 07:31:30;;;;;;;7.43;3.53;;;;;;;;;;4861294;29;20064;-66
2022/06/03 07:34:04;;;;;;;4.75;2.60;;;;;;;;;;4864617;29;20043;-63
2022/06/03 07:36:43;;;;;;;4.07;2.85;;;;;;;;;;4864702;29;20115;-63
2022/06/03 07:39:27;;;;;;;4.22;2.60;;;;;;;;;;4843065;29;20052;-63
2022/06/03 07:42:04;;;;;;;4.57;2.47;;;;;;;;;;4866634;29;20040;-63
2022/06/03 07:44:36;;;;;;;6.70;2.88;;;;;;;;;;4866956;29;20143;-63
2022/06/03 07:47:03;;;;;;;2.88;2.30;;;;;;;;;;4868091;29;20151;-62
2022/06/03 07:49:34;;;;;;;4.43;2.75;;;;;;;;;;4865718;29;21200;-63
2022/06/03 07:52:03;;;;;;;3.88;2.83;;;;;;;;;;4864054;29;20063;-63
2022/06/03 07:54:34;;;;;;;5.07;2.60;;;;;;;;;;4863109;29;20533;-64
2022/06/03 07:57:16;;;;;;;6.15;2.50;;;;;;;;;;4863231;29;20036;-64
2022/06/03 07:59:42;;;;;;;4.07;2.60;;;;;;;;;;4863834;29;20068;-64
2022/06/03 08:02:10;;;;;;;5.80;2.72;;;;;;;;;;4863977;29;20585;-64
2022/06/03 08:04:40;;;;;;;4.70;2.63;;;;;;;;;;4864191;29;20047;-64
2022/06/03 08:12:54;;;;;;;5.00;2.88;;;;;;;;;;4863257;29;20032;-64
2022/06/03 08:15:21;;;;;;;4.47;2.90;;;;;;;;;;4864683;29;20159;-63
2022/06/03 08:17:49;;;;;;;3.38;2.50;;;;;;;;;;4862624;29;20040;-63
2022/06/03 08:20:17;;;;;;;5.20;2.65;;;;;;;;;;4863153;29;20040;-63
2022/06/03 08:22:45;;;;;;;4.85;2.70;;;;;;;;;;4863005;29;20036;-63
2022/06/03 08:25:15;;;;;;;6.05;2.45;;;;;;;;;;4862434;29;20087;-64
2022/06/03 08:27:43;;;;;;;5.32;2.90;;;;;;;;;;4864328;29;20755;-63
2022/06/03 08:30:11;;;;;;;5.53;2.65;;;;;;;;;;4864427;29;20154;-64
2022/06/03 08:32:36;;;;;;;18.80;4.32;;;;;;;;;;4864503;29;20083;-63
2022/06/03 08:35:07;;;;;;;6.90;2.90;;;;;;;;;;4865487;29;20031;-63
2022/06/03 08:37:39;;;;;;;6.60;3.03;;;;;;;;;;4864490;29;20980;-63
2022/06/03 08:40:22;;;;;;;4.78;3.00;;;;;;;;;;4863922;29;20198;-63
2022/06/03 08:42:54;;;;;;;5.05;2.90;;;;;;;;;;4865166;29;20040;-63
2022/06/03 08:45:29;;;;;;;4.15;3.28;;;;;;;;;;4862502;29;20051;-63
2022/06/03 08:47:56;;;;;;;5.45;3.00;;;;;;;;;;4864995;29;20119;-63
2022/06/03 08:50:36;;;;;;;5.38;3.10;;;;;;;;;;4835888;29;20850;-63
2022/06/03 08:53:12;;;;;;;5.32;2.83;;;;;;;;;;4844585;29;20035;-63
2022/06/03 08:55:52;;;;;;;7.00;3.00;;;;;;;;;;4866473;29;20028;-63
2022/06/03 08:58:26;;;;;;;4.20;2.50;;;;;;;;;;4864044;29;20044;-63
2022/06/03 09:00:57;;;;;;;4.28;2.95;;;;;;;;;;4863639;29;20039;-63
2022/06/03 09:03:23;;;;;;;4.13;2.88;;;;;;;;;;4863876;29;20937;-62
2022/06/03 09:06:06;;;;;;;7.13;3.33;;;;;;;;;;4862632;29;20075;-64
2022/06/03 09:08:54;;;;;;;3.80;3.03;;;;;;;;;;4862251;29;20983;-64
2022/06/03 09:11:25;;;;;;;5.88;2.70;;;;;;;;;;4846821;29;20826;-63
2022/06/03 09:13:56;;;;;;;3.72;2.92;;;;;;;;;;4845157;29;20472;-64
2022/06/03 09:16:22;;;;;;;;;;;;;;;;;;4865379;29;20112;-63
2022/06/03 09:19:00;;;;;;;4.55;2.60;;;;;;;;;;4865747;29;20663;-64
2022/06/03 09:21:31;;;;;;;6.10;2.88;;;;;;;;;;4866486;29;20041;-66
2022/06/03 09:24:01;;;;;;;5.50;2.58;;;;;;;;;;4845390;29;20037;-67
2022/06/03 09:26:28;;;;;;;4.77;2.60;;;;;;;;;;4865469;29;20044;-65
2022/06/03 09:28:55;;;;;;;4.57;2.90;;;;;;;;;;4865734;29;20281;-64
2022/06/03 09:31:21;;;;;;;4.15;2.65;;;;;;;;;;4863099;29;20036;-64
2022/06/03 09:33:48;;;;;;;5.38;2.70;;;;;;;;;;4862766;29;20591;-63
2022/06/03 09:36:17;;;;;;;4.70;2.40;;;;;;;;;;4866401;29;22452;-64
2022/06/03 09:38:49;;;;;;;7.97;2.92;;;;;;;;;;4865302;29;20036;-63
2022/06/03 09:41:15;;;;;;;9.45;2.92;;;;;;;;;;4863881;29;20044;-66
2022/06/03 09:43:42;;;;;;;5.05;2.78;;;;;;;;;;4863712;29;20032;-65
2022/06/03 09:46:11;;;;;;;6.85;3.22;;;;;;;;;;4864988;29;20147;-65
2022/06/03 09:48:37;;;;;;;5.65;2.90;;;;;;;;;;4864047;29;20047;-65
2022/06/03 09:54:18;;;;;;;6.00;3.28;;;;;;;;;;4868671;29;20040;-64
2022/06/03 09:56:48;;;;;;;5.28;3.28;;;;;;;;;;4869834;29;20146;-64
2022/06/03 09:59:16;;;;;;;5.25;2.72;;;;;;;;;;4868686;29;21635;-64
2022/06/03 10:01:42;;;;;;;6.35;3.13;;;;;;;;;;4857278;29;20127;-64
2022/06/03 10:04:07;;;;;;;5.65;3.30;;;;;;;;;;4852697;29;20068;-65
2022/06/03 10:06:50;;;;;;;5.65;3.35;;;;;;;;;;4871480;29;20052;-65
2022/06/03 10:15:37;;;;;;;5.57;3.20;;;;;;;;;;4869840;29;20131;-67
2022/06/03 10:17:32;;;;;;;5.82;3.30;;;;;;;;;;4868518;29;21124;-66
2022/06/03 10:19:57;;;;;;;5.32;4.10;;;;;;;;;;4866980;29;20044;-68
2022/06/03 10:22:24;;;;;;;6.72;3.80;;;;;;;;;;4868840;29;20036;-65
2022/06/03 10:24:49;;;;;;;5.88;3.47;;;;;;;;;;4869850;29;20751;-66
2022/06/03 10:27:18;;;;;;;5.90;3.40;;;;;;;;;;4867276;29;20052;-65
2022/06/03 10:29:48;;;;;;;5.63;3.53;;;;;;;;;;4868838;29;20043;-65
2022/06/03 10:32:18;;;;;;;5.15;3.20;;;;;;;;;;4865786;29;21084;-65
2022/06/03 10:34:44;;;;;;;4.38;3.42;;;;;;;;;;4865901;29;20040;-64
2022/06/03 10:37:14;;;;;;;4.88;3.13;;;;;;;;;;4830176;29;20187;-65
2022/06/03 10:39:40;;;;;;;4.78;3.03;;;;;;;;;;4838436;29;20052;-65
2022/06/03 10:42:06;;;;;;;4.65;3.10;;;;;;;;;;4859225;29;20044;-67
2022/06/03 10:44:33;;;;;;;6.07;3.20;;;;;;;;;;4846988;29;20044;-69
2022/06/03 10:46:58;;;;;;;3.88;3.10;;;;;;;;;;4848371;29;20074;-67
2022/06/03 10:49:26;;;;;;;7.13;3.17;;;;;;;;;;4849101;29;20171;-69
2022/06/03 11:02:55;;;;;;;6.13;2.70;;;;;;;;;;4862497;29;20043;-66
2022/06/03 11:05:28;;;;;;;3.83;2.33;;;;;;;;;;4862667;29;20040;-66
2022/06/03 11:08:04;;;;;;;4.95;2.78;;;;;;;;;;4863191;29;20282;-67
2022/06/03 11:10:31;;;;;;;5.25;2.85;;;;;;;;;;4866346;29;20036;-66
2022/06/03 11:13:00;;;;;;;6.68;2.63;;;;;;;;;;4863594;29;20191;-68
2022/06/03 11:15:31;;;;;;;6.88;2.92;;;;;;;;;;4862520;29;20143;-67
2022/06/03 11:18:11;;;;;;;4.40;2.70;;;;;;;;;;4845056;29;20044;-69
2022/06/03 11:20:39;;;;;;;7.13;3.40;;;;;;;;;;4866945;29;20044;-68
2022/06/03 11:23:07;;;;;;;6.55;2.90;;;;;;;;;;4842423;29;20044;-66
2022/06/03 11:25:35;;;;;;;4.82;2.53;;;;;;;;;;4861146;29;20115;-67
2022/06/03 11:28:05;;;;;;;4.75;3.30;;;;;;;;;;4845695;29;20064;-67
2022/06/03 11:30:43;;;;;;;5.82;2.88;;;;;;;;;;4861738;29;20043;-66
2022/06/03 11:33:15;;;;;;;5.82;2.90;;;;;;;;;;4862982;29;20040;-66
2022/06/03 11:35:50;;;;;;;4.68;2.78;;;;;;;;;;4863933;29;20068;-67
2022/06/03 11:38:21;;;;;;;5.03;2.65;;;;;;;;;;4864127;29;20120;-66
2022/06/03 11:40:52;;;;;;;5.97;2.30;;;;;;;;;;4864680;29;20059;-67
2022/06/03 11:43:21;;;;;;;6.77;2.67;;;;;;;;;;4862346;29;20155;-67
2022/06/03 11:45:49;;;;;;;4.13;2.22;;;;;;;;;;4863158;29;20042;-67
2022/06/03 11:48:21;;;;;;;7.07;2.30;;;;;;;;;;4848305;29;20032;-68
2022/06/03 11:50:47;;;;;;;3.70;2.30;;;;;;;;;;4862693;29;20107;-67
2022/06/03 11:53:16;;;;;;;4.15;2.40;;;;;;;;;;4864020;29;20865;-66
2022/06/03 11:55:42;;;;;;;4.38;2.55;;;;;;;;;;4851922;29;20032;-68
2022/06/03 11:58:19;;;;;;;7.20;2.30;;;;;;;;;;4863679;29;20036;-67
2022/06/03 12:00:52;;;;;;;3.30;2.30;;;;;;;;;;4862926;29;20580;-67
2022/06/03 12:03:24;;;;;;;5.00;2.45;;;;;;;;;;4864864;29;22323;-68
2022/06/03 12:05:54;;;;;;;4.30;2.65;;;;;;;;;;4862911;29;20067;-68
2022/06/03 12:08:23;;;;;;;5.95;2.30;;;;;;;;;;4864397;29;20424;-68
2022/06/03 12:10:48;;;;;;;4.32;2.30;;;;;;;;;;4863372;29;20118;-68
2022/06/03 12:13:30;;;;;;;5.93;2.53;;;;;;;;;;4863128;29;20040;-69
2022/06/03 12:15:58;;;;;;;2.63;1.90;;;;;;;;;;4861599;29;20064;-68
2022/06/03 12:18:34;;;;;;;4.03;2.70;;;;;;;;;;4865591;29;20047;-67
2022/06/03 12:21:01;;;;;;;2.88;1.73;;;;;;;;;;4862279;29;20062;-67
2022/06/03 12:23:27;;;;;;;5.20;1.90;;;;;;;;;;4863328;29;20070;-66
2022/06/03 12:25:53;;;;;;;2.90;2.13;;;;;;;;;;4863062;29;20108;-67
2022/06/03 12:28:20;;;;;;;4.50;2.33;;;;;;;;;;4860783;29;20075;-66
2022/06/03 12:30:49;;;;;;;5.18;2.47;;;;;;;;;;4860372;29;20037;-69
2022/06/03 12:33:25;;;;;;;5.18;2.05;;;;;;;;;;4864312;29;20036;-68
2022/06/03 12:35:54;;;;;;;4.95;1.90;;;;;;;;;;4861749;29;20032;-67
2022/06/03 12:38:19;;;;;;;3.85;2.08;;;;;;;;;;4866418;29;20032;-66
2022/06/03 12:41:07;;;;;;;3.97;2.25;;;;;;;;;;4859525;29;20599;-66
2022/06/03 12:43:44;;;;;;;4.53;2.17;;;;;;;;;;4862705;29;20178;-68
2022/06/03 12:46:30;;;;;;;3.05;1.90;;;;;;;;;;4865657;29;20049;-68
2022/06/03 12:48:55;;;;;;;2.65;1.80;;;;;;;;;;4867346;29;20600;-67
2022/06/03 12:51:23;;;;;;;3.63;2.13;;;;;;;;;;4850921;29;20040;-67
2022/06/03 12:53:55;;;;;;;3.20;2.10;;;;;;;;;;4860365;29;20172;-67
2022/06/03 12:56:36;;;;;;;4.78;2.47;;;;;;;;;;4860850;29;20044;-66
2022/06/03 12:59:01;;;;;;;4.57;1.80;;;;;;;;;;4820496;29;20128;-67
2022/06/03 13:01:31;;;;;;;4.20;2.60;;;;;;;;;;4858909;29;20044;-68
2022/06/03 13:04:16;;;;;;;8.60;2.95;;;;;;;;;;4864971;29;20181;-68
2022/06/03 13:07:01;;;;;;;5.65;2.75;;;;;;;;;;4867194;29;20056;-68
2022/06/03 13:09:47;;;;;;;5.22;4.10;;;;;;;;;;4863981;29;20040;-66
2022/06/03 13:12:21;;;;;;;5.57;3.08;;;;;;;;;;4847357;29;20672;-65
2022/06/03 13:14:46;;;;;;;7.15;3.72;;;;;;;;;;4841974;29;20592;-66
2022/06/03 13:17:30;;;;;;;8.75;5.13;;;;;;;;;;4863280;29;20046;-65
2022/06/03 13:19:57;;;;;;;4.78;3.72;;;;;;;;;;4863338;29;20123;-65
2022/06/03 13:22:26;;;;;;;4.13;2.25;;;;;;;;;;4855651;29;20171;-62
2022/06/03 13:25:31;;;;;;;4.97;1.70;;;;;;;;;;4863191;29;20043;-62
2022/06/03 13:28:27;;;;;;;4.05;3.00;;;;;;;;;;4763445;29;20490;-63
2022/06/03 13:31:26;;;;;;;4.63;1.80;;;;;;;;;;4844147;29;20040;-63
2022/06/03 13:33:59;;;;;;;4.63;1.58;;;;;;;;;;4830588;29;20682;-63
2022/06/03 13:36:33;;;;;;;4.07;2.00;;;;;;;;;;4862183;29;20171;-63
2022/06/03 13:38:59;;;;;;;4.75;1.50;;;;;;;;;;4862270;29;20071;-62
2022/06/03 13:44:54;;;;;;;2.47;1.80;;;;;;;;;;4860484;29;20333;-62
2022/06/03 13:47:19;;;;;;;3.15;1.40;;;;;;;;;;4789078;29;20052;-64
2022/06/03 13:49:49;;;;;;;5.10;1.50;;;;;;;;;;4857232;29;20178;-65
2022/06/03 13:52:22;;;;;;;4.25;1.45;;;;;;;;;;4857903;29;20292;-66
2022/06/03 13:54:48;;;;;;;3.05;1.58;;;;;;;;;;4859975;29;20044;-64
2022/06/03 13:57:23;;;;;;;4.10;1.90;;;;;;;;;;4844602;29;20218;-63
2022/06/03 13:59:48;;;;;;;4.43;1.70;;;;;;;;;;4823836;29;20367;-66
2022/06/03 14:02:20;;;;;;;3.50;1.60;;;;;;;;;;4859573;29;20314;-68
2022/06/03 14:04:54;;;;;;;3.20;1.30;;;;;;;;;;4839026;29;21950;-66
2022/06/03 14:07:28;;;;;;;5.20;1.70;;;;;;;;;;4858174;29;20059;-65
2022/06/03 14:09:59;;;;;;;3.78;1.60;;;;;;;;;;4857843;29;20071;-67
2022/06/03 14:12:32;;;;;;;3.38;1.33;;;;;;;;;;4839309;29;20226;-66
2022/06/03 14:15:06;;;;;;;2.88;1.20;;;;;;;;;;4861166;29;20877;-66
2022/06/03 14:17:48;;;;;;;3.13;1.40;;;;;;;;;;4861082;29;20047;-67
2022/06/03 14:20:21;;;;;;;2.50;1.67;;;;;;;;;;4863162;29;20036;-66
2022/06/03 14:22:55;;;;;;;3.08;1.50;;;;;;;;;;4864136;29;20040;-65
2022/06/03 14:25:41;;;;;;;3.05;1.38;;;;;;;;;;4864425;29;20584;-66
2022/06/03 14:28:09;;;;;;;3.47;1.50;;;;;;;;;;4865557;29;20043;-65
2022/06/03 14:30:49;;;;;;;2.42;1.40;;;;;;;;;;4860328;29;20778;-65
2022/06/03 14:33:16;;;;;;;5.40;1.60;;;;;;;;;;4859750;29;20111;-65
2022/06/03 14:35:44;;;;;;;3.95;1.55;;;;;;;;;;4863193;29;21017;-67
2022/06/03 14:38:15;;;;;;;5.03;1.85;;;;;;;;;;4863572;29;20082;-66
2022/06/03 14:40:45;;;;;;;2.38;1.45;;;;;;;;;;4868831;29;20119;-67
2022/06/03 14:43:16;;;;;;;2.10;1.38;;;;;;;;;;4868542;29;20036;-67
2022/06/03 14:45:45;;;;;;;1.92;1.20;;;;;;;;;;4846722;29;20044;-66
2022/06/03 14:48:12;;;;;;;2.65;1.20;;;;;;;;;;4867568;29;20080;-66
2022/06/03 14:50:44;;;;;;;2.60;1.52;;;;;;;;;;4868356;29;20051;-66
2022/06/03 14:53:35;;;;;;;3.30;1.60;;;;;;;;;;4850317;29;20036;-67
2022/06/03 14:56:00;;;;;;;4.18;1.60;;;;;;;;;;4861683;29;20044;-67
2022/06/03 14:58:29;;;;;;;2.38;1.40;;;;;;;;;;4868942;29;20062;-66
2022/06/03 15:00:54;;;;;;;4.20;1.60;;;;;;;;;;4868535;29;20167;-69
2022/06/03 15:03:29;;;;;;;3.75;1.50;;;;;;;;;;4866984;29;20033;-66
2022/06/03 15:05:59;;;;;;;3.17;1.50;;;;;;;;;;4866180;29;20956;-67
2022/06/03 15:08:30;;;;;;;6.32;1.40;;;;;;;;;;4864886;29;21063;-67
2022/06/03 15:11:14;;;;;;;3.47;1.10;;;;;;;;;;4846932;29;20037;-67
2022/06/03 15:13:46;;;;;;;2.65;1.48;;;;;;;;;;4864712;29;20169;-67
2022/06/03 15:16:11;;;;;;;3.58;1.50;;;;;;;;;;4865047;29;20045;-66
2022/06/03 15:18:37;;;;;;;7.22;1.65;;;;;;;;;;4866141;29;20036;-66
2022/06/03 15:21:14;;;;;;;3.75;1.70;;;;;;;;;;4846514;29;20040;-67
2022/06/03 15:23:40;;;;;;;2.83;1.45;;;;;;;;;;4864583;29;20071;-66
2022/06/03 15:26:08;;;;;;;3.00;1.50;;;;;;;;;;4867281;29;20056;-66
2022/06/03 15:28:36;;;;;;;3.83;1.60;;;;;;;;;;4865602;29;20152;-66
2022/06/03 15:31:06;;;;;;;3.55;1.60;;;;;;;;;;4835262;29;20025;-67
2022/06/03 15:33:36;;;;;;;4.22;1.80;;;;;;;;;;4864442;29;20033;-66
2022/06/03 15:36:07;;;;;;;1.87;1.50;;;;;;;;;;4862900;29;20040;-66
2022/06/03 15:38:35;;;;;;;4.97;1.90;;;;;;;;;;4864428;29;20032;-66
2022/06/03 15:41:04;;;;;;;2.95;1.30;;;;;;;;;;4865749;29;20078;-68
2022/06/03 15:43:34;;;;;;;4.68;1.50;;;;;;;;;;4867797;29;20047;-67
2022/06/03 15:45:59;;;;;;;3.00;1.80;;;;;;;;;;4862661;29;20576;-67
2022/06/03 15:48:27;;;;;;;4.43;1.52;;;;;;;;;;4865049;29;20059;-67
2022/06/03 15:50:59;;;;;;;5.13;1.70;;;;;;;;;;4863091;29;20158;-68
2022/06/03 15:53:37;;;;;;;2.10;1.70;;;;;;;;;;4865082;29;20032;-68